Station: Adelaide (West Terrace / Ngayirdapira)

  Atmospheric Gas Attenuation - ITU Rec 676-11   --------------- db/100km ---------------
Date Time Temp RH % AH g/m3 Dew Point Wind Direction Speed kph Gust kph Barometer mB Rainfall Since 9am 24GHz 47GHz 76GHz 122GHz 134GHz 241GHz
15 00:10 12 93 9.91 10.9 6 6 1016.1 4.6 22.5 28.8 46.4 122.0 119.2 410.8
15 00:00 12 92 9.81 10.7 4 9 1016 4.6 22.3 28.6 45.9 120.8 117.7 405.8
14 23:50 12.1 91 9.76 10.7 6 7 1015.9 4.6 22.2 28.5 45.7 120.0 116.9 402.8
14 23:40 11.9 93 9.85 10.8 2 6 1015.9 4.6 22.4 28.7 46.2 121.4 118.4 408.3
14 23:30 11.8 94 9.89 10.9 6 9 1016 4.6 22.5 28.8 46.4 122.0 119.2 410.9
14 23:20 11.9 95 10.06 11.1 6 7 1015.9 4.6 22.8 29.0 47.1 123.8 121.4 418.8
14 23:10 12 95 10.13 11.2 4 6 1015.8 4.6 23.0 29.1 47.3 124.5 122.3 421.7
14 23:00 12 94 10.02 11.1 6 6 1015.8 4.6 22.7 28.9 46.8 123.2 120.7 416.2
14 22:50 12.1 94 10.08 11.2 7 7 1015.7 4.6 22.9 29.0 47.0 123.7 121.4 418.6
14 22:40 12.4 95 10.38 11.6 6 7 1015.7 4.6 23.5 29.4 48.2 126.7 125.2 432.0
14 22:30 12.7 95 10.58 11.9 6 6 1015.6 4.6 23.9 29.7 48.8 128.6 127.6 440.3
14 22:20 13 92 10.43 11.7 6 7 1015.4 4.6 23.6 29.3 48.0 126.3 124.9 431.0
14 22:10 13.2 92 10.56 11.9 11 11 1015.3 4.6 23.8 29.5 48.4 127.5 126.4 436.4
14 22:00 13.3 92 10.63 12 9 15 1015.3 4.6 24.0 29.6 48.7 128.1 127.3 439.3
14 21:50 13.3 93 10.75 12.2 9 11 1015.4 4.6 24.2 29.8 49.2 129.5 129.0 445.3
14 21:40 13.5 95 11.11 12.7 7 11 1015.3 4.2 25.0 30.3 50.7 133.4 133.8 462.3
14 21:30 13.5 97 11.35 13 6 13 1015.3 4 25.5 30.8 51.7 136.2 137.3 474.5
14 21:20 13.5 98 11.46 13.2 0 0 1015.2 4 25.7 31.0 52.2 137.5 138.9 480.1
14 21:10 13.5 98 11.46 13.2 0 0 1015.1 4 25.7 30.9 52.2 137.5 138.9 480.0
14 21:00 13.3 98 11.32 13 0 0 1015.2 4 25.5 30.8 51.7 136.2 137.2 474.1
14 20:50 13.3 98 11.32 13 0 0 1015.2 4 25.5 30.8 51.7 136.2 137.2 474.1
14 20:40 13.3 97 11.21 12.8 0 0 1015.2 4 25.2 30.6 51.2 134.9 135.6 468.5
14 20:30 13.5 97 11.35 13 0 0 1015.1 4 25.5 30.8 51.7 136.2 137.3 474.4
14 20:20 13.4 96 11.16 12.8 0 0 1015.1 4 25.1 30.4 50.9 134.1 134.7 465.3
14 20:10 13.8 93 11.08 12.7 0 2 1015 4 24.9 30.2 50.3 132.5 132.8 458.8
14 20:00 14.3 93 11.43 13.2 7 7 1014.9 4 25.6 30.6 51.5 135.7 137.0 473.4
14 19:50 14.5 94 11.69 13.5 7 7 1014.9 4 26.2 31.0 52.5 138.4 140.4 485.4
14 19:40 14.2 96 11.72 13.6 6 6 1014.8 4 26.3 31.1 52.9 139.3 141.4 488.8
14 19:30 14.2 96 11.72 13.6 0 0 1014.8 4 26.3 31.1 52.9 139.3 141.4 488.8
14 19:20 14.1 97 11.77 13.6 0 0 1014.7 4 26.4 31.3 53.2 140.1 142.3 492.0
14 19:10 14.1 97 11.77 13.6 0 0 1014.7 4 26.4 31.3 53.2 140.1 142.3 492.0
14 19:00 13.9 96 11.51 13.3 0 0 1014.6 4 25.8 30.9 52.1 137.3 138.9 479.9
14 18:50 13.9 96 11.51 13.3 0 0 1014.5 4 25.8 30.9 52.1 137.3 138.8 479.9
14 18:40 14 96 11.58 13.4 0 0 1014.4 4 26.0 31.0 52.4 137.9 139.7 482.8
14 18:30 14 96 11.58 13.4 0 0 1014.4 4 26.0 31.0 52.4 137.9 139.7 482.8
14 18:20 14 95 11.46 13.2 0 0 1014.4 4 25.7 30.7 51.8 136.5 137.9 476.6
14 18:10 14.4 93 11.5 13.3 0 2 1014.2 4 25.8 30.7 51.7 136.3 137.8 476.1
14 18:00 14.3 94 11.55 13.3 0 0 1014.1 4 25.9 30.8 52.0 137.0 138.7 479.2
14 17:50 14.3 94 11.55 13.3 0 0 1014 4 25.9 30.8 52.0 137.0 138.6 479.2
14 17:40 14.5 93 11.57 13.4 0 0 1013.9 4 25.9 30.7 52.0 136.9 138.6 478.9
14 17:30 14.8 91 11.53 13.3 0 6 1013.7 4 25.8 30.6 51.6 135.8 137.4 475.0
14 17:20 14.8 90 11.4 13.2 0 0 1013.7 4 25.5 30.3 51.0 134.3 135.5 468.4
14 17:10 14.9 89 11.34 13.1 0 0 1013.7 4 25.4 30.2 50.7 133.5 134.5 464.8
14 17:00 15 88 11.28 13 2 6 1013.5 4 25.3 30.0 50.3 132.6 133.4 461.2
14 16:50 15.4 87 11.43 13.2 2 4 1013.4 4 25.6 30.2 50.7 133.6 134.9 466.2
14 16:40 15.4 88 11.56 13.4 0 6 1013.4 4 25.8 30.4 51.3 135.1 136.7 472.7
14 16:30 15.5 86 11.37 13.2 9 13 1013.3 4 25.4 30.0 50.4 132.7 133.8 462.6
14 16:20 15.9 85 11.51 13.4 7 9 1013.2 4 25.7 30.1 50.7 133.6 135.1 467.1
14 16:10 15.7 87 11.64 13.5 7 9 1013.2 4 26.0 30.4 51.4 135.5 137.3 474.7
14 16:00 15.4 87 11.43 13.2 9 13 1013.1 4 25.6 30.1 50.7 133.6 134.8 466.1
14 15:50 15.5 88 11.63 13.5 7 9 1013 4 26.0 30.5 51.5 135.7 137.5 475.4
14 15:40 15.2 89 11.55 13.4 9 13 1012.8 4 25.8 30.4 51.3 135.3 136.9 473.2
14 15:30 14.9 87 11.09 12.8 13 20 1012.7 4 24.9 29.7 49.5 130.4 130.8 452.0
14 15:20 15.3 92 12.01 14 11 15 1012.7 4 26.8 31.2 53.3 140.5 143.3 495.7
14 15:10 15.4 90 11.82 13.8 15 20 1012.6 4 26.4 30.8 52.4 138.0 140.4 485.4
14 15:00 15.9 90 12.19 14.3 15 20 1012.7 4 27.2 31.3 53.7 141.5 144.8 500.9
14 14:50 15.5 94 12.43 14.5 9 15 1012.7 4 27.7 31.9 55.0 145.1 149.1 515.8
14 14:40 15.5 92 12.16 14.2 9 13 1012.6 3.8 27.1 31.4 53.8 141.9 145.1 502.0
14 14:30 15.7 91 12.18 14.2 11 22 1012.5 3.8 27.2 31.3 53.8 141.7 145.0 501.6
14 14:20 15.9 90 12.19 14.3 13 15 1012.3 3.8 27.2 31.3 53.7 141.4 144.8 500.8
14 14:10 16.4 88 12.28 14.4 17 20 1012.2 3.6 27.3 31.2 53.7 141.6 145.1 502.0
14 14:00 16.7 85 12.08 14.2 19 28 1012.2 3.4 26.9 30.8 52.6 138.7 141.6 490.0
14 13:50 17.2 86 12.59 14.8 22 26 1012.3 3.4 27.9 31.5 54.5 143.7 148.0 512.4
14 13:40 16.7 89 12.65 14.9 15 17 1012.4 3.4 28.1 31.8 55.1 145.4 149.9 518.8
14 13:30 16.7 89 12.65 14.9 17 20 1012.4 3.4 28.1 31.8 55.1 145.4 149.9 518.8
14 13:20 16.1 94 12.88 15.1 17 20 1012.5 3.4 28.6 32.4 56.6 149.3 154.5 534.7
14 13:10 15.1 95 12.26 14.3 17 20 1012.6 3.4 27.4 31.7 54.5 143.8 147.4 509.7
14 13:00 14.8 95 12.03 14 17 20 1012.8 3.4 26.9 31.4 53.7 141.6 144.6 500.0
14 12:50 14.8 94 11.91 13.8 11 13 1012.7 3.4 26.6 31.2 53.2 140.2 142.8 493.8
14 12:40 14.8 93 11.78 13.7 20 24 1012.9 3.4 26.4 31.0 52.6 138.7 140.9 487.3
14 12:30 15.1 93 12 14 15 24 1013 3.4 26.8 31.3 53.4 140.8 143.6 496.6
14 12:20 15.2 92 11.94 13.9 17 19 1013.1 3.4 26.7 31.1 53.1 139.9 142.5 492.9
14 12:10 15.1 94 12.13 14.1 19 24 1013.1 3.4 27.1 31.5 54.0 142.3 145.5 503.3
14 12:00 14.8 95 12.03 14 17 30 1013.2 3.4 26.9 31.4 53.8 141.7 144.6 500.2
14 11:50 14.6 96 12.01 14 13 17 1013.3 3.4 26.9 31.5 53.8 141.8 144.7 500.5
14 11:40 14.2 97 11.84 13.7 7 11 1013.4 3.4 26.5 31.3 53.3 140.6 143.0 494.4
14 11:30 13.9 97 11.63 13.4 11 19 1013.5 3.2 26.1 31.0 52.6 138.6 140.5 485.6
14 11:20 13.8 97 11.56 13.3 9 15 1013.7 3.2 25.9 31.0 52.4 138.0 139.7 482.7
14 11:10 13.7 95 11.25 12.9 9 11 1013.8 1.8 25.3 30.4 51.1 134.5 135.3 467.6
14 11:00 13.7 95 11.25 12.9 9 11 1013.9 1.6 25.3 30.5 51.1 134.5 135.4 467.6
14 10:50 13.9 94 11.27 13 7 11 1014 1.4 25.3 30.4 51.0 134.4 135.3 467.5
14 10:40 14.2 91 11.11 12.8 11 13 1014 0.2 25.0 30.0 50.1 132.0 132.5 457.6
14 10:30 14.5 90 11.19 12.9 9 11 1014.1 0 25.1 30.1 50.3 132.4 133.1 459.9
14 10:20 14.3 90 11.06 12.7 13 17 1014.2 0 24.8 29.9 49.9 131.3 131.6 454.6
14 10:10 14.3 89 10.93 12.5 11 17 1014.1 0 24.6 29.7 49.3 129.8 129.7 448.1
14 10:00 14.1 88 10.68 12.1 13 20 1014.2 0 24.0 29.3 48.3 127.2 126.5 436.9
14 09:50 14 88 10.61 12 11 15 1014.1 0 23.9 29.2 48.1 126.6 125.7 433.9
14 09:40 13.9 88 10.55 11.9 15 17 1014.1 0 23.8 29.2 47.9 126.0 125.0 431.5
14 09:30 13.9 87 10.43 11.8 13 17 1014.1 0 23.5 29.0 47.4 124.7 123.3 425.6
14 09:20 14 88 10.61 12 7 13 1014.2 0 23.9 29.2 48.1 126.6 125.7 434.0
14 09:10 14 87 10.49 11.9 15 19 1014.2 0 23.6 29.0 47.6 125.2 124.0 428.0
14 09:00 14 87 10.49 11.9 11 17 1014.2 0 23.6 29.0 47.6 125.2 124.0 428.0
14 08:50 14 87 10.49 11.9 13 17 1014.2 12.6 23.6 29.0 47.6 125.2 124.0 428.0
14 08:40 13.9 88 10.55 11.9 9 11 1014.2 12.6 23.8 29.2 47.9 126.1 125.0 431.5
14 08:30 13.9 88 10.55 11.9 9 15 1014.1 12.6 23.8 29.2 47.9 126.0 125.0 431.5
14 08:20 13.9 88 10.55 11.9 9 11 1014.1 12.6 23.8 29.2 47.9 126.0 125.0 431.5
14 08:10 13.9 88 10.55 11.9 9 11 1014.1 12.6 23.8 29.2 47.9 126.0 125.0 431.5
14 08:00 13.9 88 10.55 11.9 9 15 1014.1 12.6 23.8 29.2 47.9 126.0 125.0 431.5
14 07:50 13.8 88 10.49 11.8 9 11 1014.1 12.6 23.6 29.1 47.7 125.5 124.3 429.1
14 07:40 13.8 88 10.49 11.8 11 11 1014 12.6 23.6 29.1 47.7 125.5 124.3 429.1

Last Refresh: 15-Jun-2024 00:24:44

Bureau of Meteorology